EKEB

Esbjerg Airport

Esbjerg, Denmark
METAR EKEB 172220Z AUTO 24009KT 3600NDV BR BKN006/// 17/16 Q1014
Observed Flight Rules
Jul-17 @ 22:20 UTC (34 minutes ago)
Wind Clouds Conditions
240° at 9 knots
  • Broken at 600' AGL
  • Mist
Temperatures Readings
Current 17°C / 63°F
Dewpoint 16°C / 61°F
Humidity 94%
Altimeter 29.94" Hg
Pressure 1014 hPa
Elevation 29
METAR EKEB 172220Z AUTO 24009KT 3600NDV BR BKN006/// 17/16 Q1014
Observed Flight Rules
Jul-17 @ 22:20 UTC
(34 minutes ago)
Wind
240° at 9 knots
Clouds
  • Broken at 600' AGL
Conditions
  • Mist
Temperature Dewpoint
17°C / 63°F 16°C / 61°F
Humidity Altimeter Pressure
94% 29.94" Hg 1014 hPa